powered by Meteolive.it
Dati meteo   Attuali  Passati Ogni 3 ore 7 Giorni 15 Giorni Avvisi Meteo Mappe meteo
Milano / Linate, Italy
Alba: 7:55 AM UTC1
Tramonto: 5:12 PM UTC1
 Lat: 45.42N, Lon: 9.27E
ICAO Usato: LIML
Condizioni Meteo Attuali Aggiornate: 22.01.2017 alle 19:20 LT
Quasi Sereno
Quasi Sereno
N/D
N/D
Temp: 3°C
Umidita': 56%
Direz/Vel. Vento: variabile 04 KTS
Pressione: 1027 hPa
Punto di rugiada: -5°C
Temperatura percepita: 3°C
Visibilitą: >10 KM (ottima)
Temperatura percepita in
presenza di vento (Wind Chill)
:
1°C
T. max (ultime 24 ore): 9°C
T. min (ultime 24 ore): -4°C


METAR ORIGINALE
LIML 221720Z VRB04KT CAVOK 03/M05 Q1027 NOSIG